Time;durP1;ratioP1;P1;durP2;ratioP2;P2;SDS_P1;SDS_P2;PMS_P1;PMS_P2;Temp;Humidity;BMP_temperature;BMP_pressure;BME280_temperature;BME280_humidity;BME280_pressure;Samples;Min_cycle;Max_cycle;Signal;HPM_P1;HPM_P2
2022/09/23 00:04:47;;;;;;;;;;;;;;;6.42;100.00;101569.03;10406889;28;19921;-79
2022/09/23 00:09:48;;;;;;;;;;;;;;;6.43;100.00;101566.53;10372207;28;19944;-78
2022/09/23 00:14:48;;;;;;;;;;;;;;;6.40;100.00;101571.50;10364904;28;20381;-80
2022/09/23 00:19:49;;;;;;;;;;;;;;;6.36;100.00;101565.97;10393042;28;19987;-78
2022/09/23 00:24:49;;;;;;;;;;;;;;;6.35;100.00;101567.66;10405871;28;20389;-79
2022/09/23 00:29:49;;;;;;;;;;;;;;;6.34;100.00;101560.63;10388201;28;19932;-79
2022/09/23 00:34:50;;;;;;;;;;;;;;;6.27;100.00;101564.47;10405579;28;19925;-79
2022/09/23 00:39:51;;;;;;;;;;;;;;;6.29;100.00;101560.31;10380431;28;19928;-80
2022/09/23 00:44:55;;;;;;;;;;;;;;;6.26;100.00;101560.06;10365139;28;19921;-80
2022/09/23 00:49:59;;;;;;;;;;;;;;;6.21;100.00;101563.09;10378738;28;20289;-80
2022/09/23 00:54:59;;;;;;;;;;;;;;;6.16;100.00;101555.84;10362714;28;19921;-79
2022/09/23 01:00:00;;;;;;;;;;;;;;;6.15;100.00;101547.94;10384976;28;19924;-80
2022/09/23 01:05:00;;;;;;;;;;;;;;;6.22;100.00;101549.31;10401326;28;19925;-79
2022/09/23 01:10:00;;;;;;;;;;;;;;;6.15;100.00;101546.22;10366981;28;20416;-80
2022/09/23 01:15:10;;;;;;;;;;;;;;;6.11;100.00;101545.91;10362144;28;20013;-81
2022/09/23 01:20:29;;;;;;;;;;;;;;;6.11;100.00;101539.00;10374297;28;19928;-81
2022/09/23 01:25:30;;;;;;;;;;;;;;;6.07;100.00;101536.06;10362610;28;19917;-81
2022/09/23 01:30:36;;;;;;;;;;;;;;;6.09;100.00;101531.88;10376206;28;20273;-79
2022/09/23 01:35:46;;;;;;;;;;;;;;;6.01;100.00;101531.28;10361991;28;20031;-79
2022/09/23 01:40:51;;;;;;;;;;;;;;;6.02;100.00;101531.41;10374078;28;20305;-79
2022/09/23 01:45:55;;;;;;;;;;;;;;;6.04;100.00;101526.31;10361116;28;19927;-79
2022/09/23 01:51:21;;;;;;;;;;;;;;;5.94;100.00;101528.97;10384030;28;19932;-79
2022/09/23 01:56:29;;;;;;;;;;;;;;;5.80;100.00;101518.41;10358980;28;19921;-78
2022/09/23 02:01:32;;;;;;;;;;;;;;;5.66;100.00;101521.63;10392341;28;19928;-78
2022/09/23 02:06:35;;;;;;;;;;;;;;;5.52;100.00;101521.44;10388587;28;19928;-79
2022/09/23 02:11:35;;;;;;;;;;;;;;;5.46;100.00;101522.69;10415544;28;20291;-79
2022/09/23 02:16:38;;;;;;;;;;;;;;;5.38;100.00;101515.19;10419590;28;19920;-79
2022/09/23 02:21:39;;;;;;;;;;;;;;;5.37;100.00;101521.16;10390119;28;19928;-78
2022/09/23 02:27:02;;;;;;;;;;;;;;;5.32;100.00;101512.09;10385178;28;19939;-78
2022/09/23 02:32:13;;;;;;;;;;;;;;;5.40;100.00;101507.50;10409073;28;20360;-79
2022/09/23 02:37:28;;;;;;;;;;;;;;;5.35;100.00;101506.25;10390400;28;19927;-79
2022/09/23 02:42:39;;;;;;;;;;;;;;;5.29;100.00;101502.38;10440282;28;19928;-79
2022/09/23 02:47:39;;;;;;;;;;;;;;;5.24;100.00;101502.81;10412893;28;19925;-79
2022/09/23 02:52:40;;;;;;;;;;;;;;;5.25;100.00;101499.44;10381846;28;19925;-78
2022/09/23 02:57:40;;;;;;;;;;;;;;;5.18;100.00;101497.13;10399724;28;19964;-78
2022/09/23 03:02:44;;;;;;;;;;;;;;;5.11;100.00;101493.13;10443384;28;20066;-79
2022/09/23 03:07:48;;;;;;;;;;;;;;;5.10;100.00;101487.06;10410854;28;20376;-79
2022/09/23 03:12:51;;;;;;;;;;;;;;;5.08;100.00;101477.31;10436649;28;20389;-78
2022/09/23 03:18:11;;;;;;;;;;;;;;;5.02;100.00;101469.03;10409092;28;19924;-78
2022/09/23 03:23:12;;;;;;;;;;;;;;;5.04;100.00;101459.69;10366007;28;19968;-78
2022/09/23 03:28:13;;;;;;;;;;;;;;;5.04;100.00;101459.69;10371586;28;20038;-80
2022/09/23 03:33:15;;;;;;;;;;;;;;;4.92;100.00;101463.13;10401690;28;19970;-82
2022/09/23 03:38:16;;;;;;;;;;;;;;;4.83;100.00;101462.38;10390805;28;19928;-83
2022/09/23 03:43:16;;;;;;;;;;;;;;;4.80;100.00;101456.94;10437794;28;20434;-83
2022/09/23 03:48:16;;;;;;;;;;;;;;;4.84;100.00;101459.00;10391488;28;19927;-80
2022/09/23 03:53:19;;;;;;;;;;;;;;;4.82;100.00;101452.78;10404754;28;19964;-81
2022/09/23 03:58:20;;;;;;;;;;;;;;;4.82;100.00;101443.34;10418350;28;19964;-79
2022/09/23 04:03:21;;;;;;;;;;;;;;;4.81;100.00;101438.94;10387147;28;24274;-79
2022/09/23 04:08:21;;;;;;;;;;;;;;;4.83;100.00;101439.03;10405756;28;19921;-79
2022/09/23 04:13:22;;;;;;;;;;;;;;;4.70;100.00;101435.47;10399018;28;19921;-78
2022/09/23 04:18:22;;;;;;;;;;;;;;;4.67;100.00;101431.72;10351213;28;19948;-78
2022/09/23 04:23:23;;;;;;;;;;;;;;;4.66;100.00;101445.47;10446240;28;19915;-79
2022/09/23 04:28:23;;;;;;;;;;;;;;;4.61;100.00;101447.69;10392027;28;19922;-78
2022/09/23 04:33:24;;;;;;;;;;;;;;;4.58;100.00;101442.25;10424687;28;19925;-78
2022/09/23 04:38:24;;;;;;;;;;;;;;;4.59;100.00;101435.41;10348743;28;19921;-78
2022/09/23 04:43:25;;;;;;;;;;;;;;;4.59;100.00;101432.81;10442302;28;20276;-78
2022/09/23 04:48:25;;;;;;;;;;;;;;;4.51;100.00;101429.56;10374130;28;20423;-78
2022/09/23 04:53:26;;;;;;;;;;;;;;;4.48;100.00;101418.94;10370831;28;19931;-78
2022/09/23 04:58:27;;;;;;;;;;;;;;;4.49;100.00;101424.28;10388298;28;20298;-80
2022/09/23 05:03:29;;;;;;;;;;;;;;;4.58;100.00;101421.50;10407306;28;19921;-78
2022/09/23 05:08:29;;;;;;;;;;;;;;;4.66;100.00;101432.50;10365018;28;20018;-78
2022/09/23 05:13:31;;;;;;;;;;;;;;;4.76;100.00;101426.38;10431424;28;19932;-78
2022/09/23 05:18:32;;;;;;;;;;;;;;;4.82;100.00;101419.06;10400391;28;19940;-79
2022/09/23 05:23:32;;;;;;;;;;;;;;;4.80;100.00;101418.03;10400241;28;20262;-78
2022/09/23 05:28:33;;;;;;;;;;;;;;;4.84;100.00;101418.44;10404174;28;19924;-78
2022/09/23 05:33:34;;;;;;;;;;;;;;;4.91;100.00;101421.50;10443518;28;19921;-77
2022/09/23 05:38:34;;;;;;;;;;;;;;;5.00;100.00;101423.13;10440237;28;19916;-79
2022/09/23 05:43:35;;;;;;;;;;;;;;;5.08;100.00;101431.53;10433416;28;19929;-79
2022/09/23 05:48:36;;;;;;;;;;;;;;;5.12;100.00;101432.66;10421018;28;20008;-79
2022/09/23 05:53:39;;;;;;;;;;;;;;;5.27;100.00;101432.97;10402256;28;20369;-80
2022/09/23 05:58:39;;;;;;;;;;;;;;;5.44;100.00;101436.88;10400438;28;19928;-80
2022/09/23 06:03:39;;;;;;;;;;;;;;;5.60;100.00;101428.59;10400652;28;19928;-79
2022/09/23 06:08:40;;;;;;;;;;;;;;;5.86;100.00;101440.06;10408011;28;19921;-80
2022/09/23 06:13:41;;;;;;;;;;;;;;;6.15;100.00;101431.88;10407473;28;19921;-79
2022/09/23 06:18:41;;;;;;;;;;;;;;;6.30;100.00;101431.19;10411283;28;20034;-80
2022/09/23 06:23:42;;;;;;;;;;;;;;;6.54;100.00;101429.50;10432580;28;19952;-81
2022/09/23 06:28:42;;;;;;;;;;;;;;;6.76;100.00;101437.16;10381326;28;19921;-81
2022/09/23 06:33:43;;;;;;;;;;;;;;;7.13;100.00;101422.38;10436485;28;20420;-81
2022/09/23 06:38:44;;;;;;;;;;;;;;;7.48;100.00;101434.34;10371834;28;20434;-81
2022/09/23 06:43:44;;;;;;;;;;;;;;;7.67;100.00;101435.59;10398115;28;20392;-81
2022/09/23 06:48:44;;;;;;;;;;;;;;;8.07;100.00;101425.28;10429974;28;19956;-80
2022/09/23 06:53:45;;;;;;;;;;;;;;;8.57;100.00;101436.34;10423481;28;19928;-80
2022/09/23 06:58:46;;;;;;;;;;;;;;;9.42;100.00;101438.19;10409512;28;19925;-80
2022/09/23 07:03:47;;;;;;;;;;;;;;;9.31;98.10;101432.31;10393695;28;19925;-80
2022/09/23 07:08:47;;;;;;;;;;;;;;;9.26;98.90;101434.63;10410391;28;20778;-80
2022/09/23 07:13:47;;;;;;;;;;;;;;;9.47;99.76;101428.91;10440528;28;19928;-82
2022/09/23 07:18:48;;;;;;;;;;;;;;;10.05;99.71;101431.50;10397223;28;19924;-81
2022/09/23 07:23:49;;;;;;;;;;;;;;;10.93;92.41;101432.09;10373826;28;19927;-80
2022/09/23 07:29:04;;;;;;;;;;;;;;;11.81;87.53;101444.66;10422459;28;19970;-79
2022/09/23 07:34:05;;;;;;;;;;;;;;;12.04;84.94;101439.72;10359537;28;19979;-82
2022/09/23 07:39:06;;;;;;;;;;;;;;;11.51;85.89;101436.97;10345924;28;19984;-80
2022/09/23 07:44:09;;;;;;;;;;;;;;;11.44;89.89;101434.84;10341441;28;19983;-81
2022/09/23 07:49:10;;;;;;;;;;;;;;;11.91;89.40;101417.16;10405657;28;20269;-81
2022/09/23 07:54:12;;;;;;;;;;;;;;;11.98;85.86;101419.28;10371751;28;19921;-80
2022/09/23 07:59:17;;;;;;;;;;;;;;;12.04;87.34;101424.88;10373447;28;19925;-81
2022/09/23 08:04:18;;;;;;;;;;;;;;;12.30;87.06;101425.25;10347980;28;20324;-80
2022/09/23 08:09:19;;;;;;;;;;;;;;;12.63;84.85;101424.22;10362738;28;19921;-80
2022/09/23 08:14:21;;;;;;;;;;;;;;;13.11;81.88;101426.47;10363029;28;19964;-79
2022/09/23 08:19:21;;;;;;;;;;;;;;;13.88;78.32;101422.84;10361977;28;19921;-79
2022/09/23 08:24:22;;;;;;;;;;;;;;;14.89;74.75;101422.59;10372675;28;19933;-80
2022/09/23 08:29:23;;;;;;;;;;;;;;;15.75;68.96;101416.06;10402972;28;20458;-80
2022/09/23 08:34:25;;;;;;;;;;;;;;;16.08;62.09;101418.09;10389168;28;19928;-80
2022/09/23 08:39:25;;;;;;;;;;;;;;;16.01;64.95;101421.38;10382000;28;20405;-80
2022/09/23 08:44:29;;;;;;;;;;;;;;;15.97;67.94;101430.03;10381604;28;19927;-78
2022/09/23 08:49:30;;;;;;;;;;;;;;;15.80;65.33;101422.41;10403192;28;19920;-78
2022/09/23 08:54:31;;;;;;;;;;;;;;;16.08;63.76;101415.47;10343957;28;20386;-78
2022/09/23 08:59:39;;;;;;;;;;;;;;;16.16;64.56;101426.28;10384515;28;19975;-78
2022/09/23 09:04:43;;;;;;;;;;;;;;;15.95;60.39;101430.00;10361878;28;20023;-78
2022/09/23 09:09:48;;;;;;;;;;;;;;;16.15;62.04;101427.16;10363147;28;19983;-78
2022/09/23 09:15:00;;;;;;;;;;;;;;;16.33;60.41;101418.03;10360801;28;19972;-78
2022/09/23 09:20:07;;;;;;;;;;;;;;;16.80;61.17;101415.09;10374833;28;19921;-78
2022/09/23 09:25:16;;;;;;;;;;;;;;;17.03;63.10;101411.44;10360198;28;20280;-79
2022/09/23 09:30:16;;;;;;;;;;;;;;;17.28;57.90;101411.28;10363264;28;19929;-79
2022/09/23 09:35:19;;;;;;;;;;;;;;;17.93;55.88;101405.09;10364830;28;20391;-79
2022/09/23 09:40:20;;;;;;;;;;;;;;;18.12;53.42;101397.66;10368454;28;19928;-77
2022/09/23 09:45:22;;;;;;;;;;;;;;;18.15;55.30;101401.25;10377114;28;20373;-78
2022/09/23 09:50:41;;;;;;;;;;;;;;;18.77;52.69;101396.53;10371209;28;19979;-79
2022/09/23 09:55:41;;;;;;;;;;;;;;;19.42;50.97;101392.59;10352840;28;20009;-79
2022/09/23 10:00:42;;;;;;;;;;;;;;;20.01;50.91;101390.13;10352729;28;19921;-78
2022/09/23 10:05:42;;;;;;;;;;;;;;;20.84;45.66;101371.91;10346036;28;19921;-76
2022/09/23 10:10:58;;;;;;;;;;;;;;;22.27;43.54;101373.38;10355947;28;19922;-77
2022/09/23 10:15:59;;;;;;;;;;;;;;;23.09;41.75;101371.19;10384495;28;20007;-77
2022/09/23 10:21:00;;;;;;;;;;;;;;;23.86;38.69;101362.47;10400258;28;19925;-79
2022/09/23 10:26:02;;;;;;;;;;;;;;;25.17;37.35;101359.53;10373891;28;19921;-79
2022/09/23 10:31:03;;;;;;;;;;;;;;;24.93;37.05;101350.72;10364009;28;20271;-78
2022/09/23 10:36:07;;;;;;;;;;;;;;;24.14;39.52;101351.81;10398629;28;19921;-78
2022/09/23 10:46:46;;;;;;;;;;;;;;;25.94;35.69;101355.44;10362641;28;19922;-77
2022/09/23 10:51:46;;;;;;;;;;;;;;;24.32;35.65;101358.91;10358011;28;20008;-78
2022/09/23 10:56:47;;;;;;;;;;;;;;;22.69;40.80;101357.66;10358082;28;19921;-76
2022/09/23 11:01:58;;;;;;;;;;;;;;;22.21;42.54;101355.56;10376887;28;20476;-77
2022/09/23 11:06:58;;;;;;;;;;;;;;;21.51;43.09;101356.69;10399162;28;19921;-77
2022/09/23 11:12:06;;;;;;;;;;;;;;;21.42;43.80;101357.50;10400771;28;20273;-76
2022/09/23 11:17:13;;;;;;;;;;;;;;;21.54;44.56;101354.06;10360690;28;19932;-76
2022/09/23 11:22:19;;;;;;;;;;;;;;;21.96;43.57;101349.16;10364053;28;19924;-76
2022/09/23 11:27:25;;;;;;;;;;;;;;;22.10;39.42;101343.94;10366124;28;20015;-77
2022/09/23 11:32:26;;;;;;;;;;;;;;;21.68;41.15;101336.47;10398843;28;19921;-77
2022/09/23 11:37:32;;;;;;;;;;;;;;;21.46;41.72;101329.13;10407093;28;19921;-79
2022/09/23 11:42:37;;;;;;;;;;;;;;;20.72;48.79;101330.03;10397792;28;19964;-79
2022/09/23 11:47:47;;;;;;;;;;;;;;;20.61;44.78;101324.59;10402175;28;19928;-79
2022/09/23 11:52:50;;;;;;;;;;;;;;;20.69;48.16;101325.59;10405104;28;20004;-79
2022/09/23 11:57:52;;;;;;;;;;;;;;;20.93;46.11;101309.94;10405836;28;20304;-79
2022/09/23 12:02:52;;;;;;;;;;;;;;;21.52;45.73;101311.47;10406797;28;20011;-79
2022/09/23 12:07:56;;;;;;;;;;;;;;;21.63;43.74;101308.91;10406867;28;20060;-79
2022/09/23 12:13:03;;;;;;;;;;;;;;;20.57;45.09;101309.47;10402187;28;19929;-79
2022/09/23 12:18:10;;;;;;;;;;;;;;;19.72;48.79;101301.09;10388909;28;19921;-79
2022/09/23 12:23:23;;;;;;;;;;;;;;;19.18;50.99;101313.38;10404481;28;20003;-79
2022/09/23 12:28:28;;;;;;;;;;;;;;;19.03;55.06;101306.03;10445141;28;20289;-78
2022/09/23 12:33:30;;;;;;;;;;;;;;;19.05;54.93;101302.53;10384466;28;19921;-78
2022/09/23 12:38:33;;;;;;;;;;;;;;;19.24;52.44;101300.25;10427294;28;20261;-78
2022/09/23 12:43:34;;;;;;;;;;;;;;;19.19;50.48;101310.78;10368507;28;20373;-79
2022/09/23 12:48:49;;;;;;;;;;;;;;;19.02;51.16;101298.94;10362584;28;19971;-78
2022/09/23 12:53:54;;;;;;;;;;;;;;;18.47;53.20;101296.91;10366293;28;19925;-78
2022/09/23 12:58:57;;;;;;;;;;;;;;;18.20;58.65;101285.69;10386329;28;20288;-78
2022/09/23 13:09:20;;;;;;;;;;;;;;;18.31;55.26;101282.41;10389373;28;20373;-78
2022/09/23 13:14:21;;;;;;;;;;;;;;;18.66;53.72;101281.41;10396685;28;19929;-77
2022/09/23 13:19:24;;;;;;;;;;;;;;;18.52;55.63;101276.69;10412295;28;19943;-77
2022/09/23 13:24:27;;;;;;;;;;;;;;;18.54;58.96;101274.97;10364520;28;20225;-77
2022/09/23 13:29:32;;;;;;;;;;;;;;;18.75;55.24;101265.69;10393592;28;20304;-78
2022/09/23 13:34:32;;;;;;;;;;;;;;;18.82;52.51;101269.34;10406145;28;19921;-78
2022/09/23 13:39:33;;;;;;;;;;;;;;;18.84;53.40;101259.66;10442556;28;19921;-78
2022/09/23 13:44:34;;;;;;;;;;;;;;;18.87;56.76;101260.63;10402494;28;19928;-78
2022/09/23 13:49:35;;;;;;;;;;;;;;;18.65;55.51;101248.69;10436608;28;19928;-78
2022/09/23 13:54:45;;;;;;;;;;;;;;;18.32;60.37;101255.03;10423442;28;20304;-78
2022/09/23 13:59:45;;;;;;;;;;;;;;;17.83;56.13;101244.22;10377968;28;19922;-79
2022/09/23 14:04:46;;;;;;;;;;;;;;;17.58;59.10;101244.50;10391844;28;20403;-78
2022/09/23 14:09:47;;;;;;;;;;;;;;;17.34;59.36;101238.59;10397979;28;19979;-79
2022/09/23 14:14:48;;;;;;;;;;;;;;;17.05;56.74;101236.97;10381160;28;19925;-79
2022/09/23 14:19:49;;;;;;;;;;;;;;;16.77;65.22;101235.28;10374348;28;20292;-79
2022/09/23 14:24:49;;;;;;;;;;;;;;;16.58;62.53;101234.75;10358949;28;19925;-79
2022/09/23 14:29:49;;;;;;;;;;;;;;;16.33;67.62;101233.16;10359678;28;20381;-79
2022/09/23 14:34:50;;;;;;;;;;;;;;;16.34;66.53;101234.94;10358989;28;20353;-79
2022/09/23 14:39:50;;;;;;;;;;;;;;;16.41;64.44;101231.63;10357670;28;19917;-78
2022/09/23 14:44:51;;;;;;;;;;;;;;;16.41;64.49;101226.34;10359110;28;20262;-79
2022/09/23 14:55:14;;;;;;;;;;;;;;;16.13;66.50;101209.69;10357997;28;19917;-78
2022/09/23 15:00:14;;;;;;;;;;;;;;;16.07;70.97;101204.22;10367471;28;19917;-79
2022/09/23 15:05:15;;;;;;;;;;;;;;;16.08;66.69;101198.97;10373053;28;19921;-78
2022/09/23 15:10:16;;;;;;;;;;;;;;;16.14;68.69;101201.78;10365332;28;19921;-78
2022/09/23 15:15:17;;;;;;;;;;;;;;;16.13;73.71;101201.75;10371455;28;19958;-77
2022/09/23 15:20:20;;;;;;;;;;;;;;;16.20;69.53;101198.44;10408233;28;19925;-78
2022/09/23 15:25:23;;;;;;;;;;;;;;;16.36;65.69;101186.56;10404829;28;19925;-77
2022/09/23 15:30:24;;;;;;;;;;;;;;;16.33;68.99;101185.59;10406010;28;20357;-77
2022/09/23 15:35:25;;;;;;;;;;;;;;;16.27;67.12;101199.50;10401110;28;19917;-77
2022/09/23 15:40:29;;;;;;;;;;;;;;;16.13;65.89;101186.78;10400602;28;19921;-77
2022/09/23 15:45:34;;;;;;;;;;;;;;;16.05;70.65;101185.66;10407734;28;19925;-77
2022/09/23 15:50:34;;;;;;;;;;;;;;;15.80;74.10;101197.19;10370775;28;19917;-79
2022/09/23 15:55:35;;;;;;;;;;;;;;;15.51;75.58;101190.13;10381501;28;19921;-77
2022/09/23 16:00:35;;;;;;;;;;;;;;;15.34;77.59;101192.22;10385311;28;19929;-78
2022/09/23 16:05:37;;;;;;;;;;;;;;;15.08;78.93;101186.97;10366747;28;19922;-78
2022/09/23 16:10:37;;;;;;;;;;;;;;;14.96;80.22;101182.16;10376865;28;19929;-77
2022/09/23 16:15:38;;;;;;;;;;;;;;;14.76;83.47;101183.19;10360217;28;19921;-77
2022/09/23 16:20:41;;;;;;;;;;;;;;;14.64;85.28;101196.81;10364473;28;19921;-78
2022/09/23 16:25:41;;;;;;;;;;;;;;;14.47;85.61;101201.44;10368310;28;19922;-78
2022/09/23 16:30:41;;;;;;;;;;;;;;;14.31;85.94;101192.97;10391865;28;19936;-81
2022/09/23 16:35:42;;;;;;;;;;;;;;;14.14;87.33;101191.44;10341152;28;20318;-81
2022/09/23 16:40:43;;;;;;;;;;;;;;;14.00;88.72;101185.66;10387977;28;19921;-81
2022/09/23 16:45:44;;;;;;;;;;;;;;;13.89;89.61;101191.41;10375986;28;19983;-81
2022/09/23 16:50:45;;;;;;;;;;;;;;;13.82;90.58;101183.19;10361872;28;19917;-80
2022/09/23 16:55:45;;;;;;;;;;;;;;;13.66;91.90;101185.22;10391462;28;20279;-81
2022/09/23 17:06:05;;;;;;;;;;;;;;;13.35;92.47;101182.22;10362728;28;20072;-80
2022/09/23 17:11:05;;;;;;;;;;;;;;;13.22;92.35;101179.91;10361190;28;19921;-80
2022/09/23 17:16:05;;;;;;;;;;;;;;;13.07;94.49;101175.78;10358790;28;20020;-81
2022/09/23 17:21:06;;;;;;;;;;;;;;;13.01;95.83;101186.03;10320768;28;19932;-81
2022/09/23 17:26:08;;;;;;;;;;;;;;;12.81;96.87;101179.03;10393253;28;19974;-81
2022/09/23 17:31:09;;;;;;;;;;;;;;;12.72;97.42;101166.38;10402662;28;19928;-81
2022/09/23 17:36:10;;;;;;;;;;;;;;;12.60;97.84;101172.00;10365325;28;20477;-79
2022/09/23 17:41:11;;;;;;;;;;;;;;;12.44;98.17;101173.03;10338446;28;19970;-79
2022/09/23 17:46:13;;;;;;;;;;;;;;;12.42;98.51;101173.00;10352949;28;19978;-80
2022/09/23 17:51:14;;;;;;;;;;;;;;;12.33;99.26;101162.94;10345873;28;19925;-81
2022/09/23 17:56:17;;;;;;;;;;;;;;;12.22;99.88;101164.19;10356654;28;20385;-81
2022/09/23 18:01:18;;;;;;;;;;;;;;;12.07;100.00;101161.78;10338554;28;19922;-81
2022/09/23 18:06:19;;;;;;;;;;;;;;;11.94;100.00;101167.25;10370996;28;19921;-79
2022/09/23 18:11:20;;;;;;;;;;;;;;;11.86;100.00;101164.25;10334139;28;19925;-79
2022/09/23 18:16:21;;;;;;;;;;;;;;;11.92;100.00;101166.28;10391074;28;19932;-80
2022/09/23 18:21:22;;;;;;;;;;;;;;;11.87;100.00;101171.28;10352380;28;19922;-80
2022/09/23 18:26:23;;;;;;;;;;;;;;;11.89;100.00;101169.63;10371304;28;19928;-79
2022/09/23 18:31:23;;;;;;;;;;;;;;;11.87;100.00;101179.16;10358239;28;19923;-79
2022/09/23 18:36:24;;;;;;;;;;;;;;;11.88;100.00;101170.47;10392136;28;19985;-79
2022/09/23 18:41:25;;;;;;;;;;;;;;;11.90;100.00;101177.59;10401520;28;20059;-79
2022/09/23 18:46:28;;;;;;;;;;;;;;;11.92;100.00;101175.03;10386683;28;19925;-78
2022/09/23 18:51:28;;;;;;;;;;;;;;;11.95;100.00;101175.16;10367323;28;19921;-79
2022/09/23 18:56:32;;;;;;;;;;;;;;;12.03;100.00;101186.06;10377281;28;19921;-80
2022/09/23 19:01:32;;;;;;;;;;;;;;;11.99;100.00;101189.34;10368376;28;20439;-81
2022/09/23 19:06:33;;;;;;;;;;;;;;;12.06;100.00;101180.06;10392738;28;19921;-81
2022/09/23 19:11:35;;;;;;;;;;;;;;;12.07;100.00;101185.38;10395974;28;19920;-81
2022/09/23 19:16:35;;;;;;;;;;;;;;;12.11;100.00;101184.72;10370024;28;19968;-80
2022/09/23 19:21:36;;;;;;;;;;;;;;;12.04;100.00;101183.50;10362344;28;20429;-80
2022/09/23 19:26:37;;;;;;;;;;;;;;;11.99;100.00;101178.84;10368890;28;19948;-79
2022/09/23 19:31:38;;;;;;;;;;;;;;;12.02;100.00;101176.41;10383453;28;19928;-80
2022/09/23 19:36:41;;;;;;;;;;;;;;;11.99;100.00;101178.84;10359288;28;19976;-79
2022/09/23 19:41:41;;;;;;;;;;;;;;;11.96;100.00;101176.97;10379547;28;19932;-81
2022/09/23 19:46:43;;;;;;;;;;;;;;;11.95;100.00;101175.16;10401759;28;19924;-80
2022/09/23 19:51:45;;;;;;;;;;;;;;;11.96;100.00;101168.22;10382963;28;20032;-81
2022/09/23 19:56:46;;;;;;;;;;;;;;;11.94;100.00;101164.63;10386269;28;19922;-81
2022/09/23 20:01:46;;;;;;;;;;;;;;;11.89;100.00;101169.63;10367746;28;19921;-82
2022/09/23 20:06:48;;;;;;;;;;;;;;;11.80;100.00;101170.13;10364846;28;19925;-82
2022/09/23 20:11:48;;;;;;;;;;;;;;;11.78;100.00;101157.75;10369457;28;19964;-81
2022/09/23 20:16:50;;;;;;;;;;;;;;;11.83;100.00;101164.09;10365022;28;19997;-81
2022/09/23 20:22:23;;;;;;;;;;;;;;;11.95;100.00;101161.19;10402869;28;20307;-82
2022/09/23 20:27:11;;;;;;;;;;;;;;;12.11;100.00;101160.19;10441085;28;19925;-82
2022/09/23 20:32:11;;;;;;;;;;;;;;;12.24;100.00;101156.41;10429846;28;19981;-82
2022/09/23 20:37:16;;;;;;;;;;;;;;;12.30;100.00;101157.56;10423485;28;19928;-81
2022/09/23 20:42:17;;;;;;;;;;;;;;;12.25;100.00;101159.09;10406120;28;19921;-82
2022/09/23 20:47:17;;;;;;;;;;;;;;;12.19;100.00;101164.97;10418725;28;19986;-82
2022/09/23 20:52:20;;;;;;;;;;;;;;;12.12;100.00;101165.50;10445906;28;19969;-83
2022/09/23 20:57:20;;;;;;;;;;;;;;;12.04;100.00;101166.88;10428223;28;19932;-82
2022/09/23 21:02:21;;;;;;;;;;;;;;;11.93;100.00;101161.09;10403686;28;20388;-82
2022/09/23 21:07:22;;;;;;;;;;;;;;;11.89;100.00;101161.78;10422150;28;19921;-83
2022/09/23 21:12:23;;;;;;;;;;;;;;;11.86;100.00;101162.53;10438158;28;19921;-83
2022/09/23 21:17:23;;;;;;;;;;;;;;;11.80;100.00;101161.34;10424255;28;19921;-83
2022/09/23 21:22:23;;;;;;;;;;;;;;;11.77;100.00;101153.31;10368771;28;20258;-83
2022/09/23 21:27:25;;;;;;;;;;;;;;;11.67;100.00;101152.88;10399609;28;19920;-83
2022/09/23 21:32:26;;;;;;;;;;;;;;;11.59;100.00;101156.88;10422502;28;19952;-83
2022/09/23 21:37:26;;;;;;;;;;;;;;;11.50;100.00;101149.47;10403512;28;20448;-81
2022/09/23 21:42:27;;;;;;;;;;;;;;;11.44;100.00;101168.41;10401297;28;19960;-82
2022/09/23 21:47:30;;;;;;;;;;;;;;;11.41;100.00;101160.38;10418364;28;19928;-81
2022/09/23 21:52:30;;;;;;;;;;;;;;;11.36;100.00;101159.25;10410419;28;19929;-82
2022/09/23 21:57:30;;;;;;;;;;;;;;;11.34;100.00;101150.44;10384316;28;19924;-83
2022/09/23 22:02:31;;;;;;;;;;;;;;;11.26;100.00;101144.84;10399677;28;19920;-80
2022/09/23 22:07:35;;;;;;;;;;;;;;;11.22;100.00;101144.59;10432713;28;19924;-80
2022/09/23 22:12:36;;;;;;;;;;;;;;;11.12;100.00;101138.88;10407246;28;19921;-81
2022/09/23 22:17:37;;;;;;;;;;;;;;;11.06;100.00;101141.22;10417808;28;19925;-80
2022/09/23 22:22:39;;;;;;;;;;;;;;;10.97;100.00;101143.38;10416638;28;20418;-81
2022/09/23 22:32:39;;;;;;;;;;;;;;;10.88;100.00;101146.44;10396218;28;19929;-80
2022/09/23 22:33:02;;;;;;;;;;;;;;;10.86;100.00;101148.94;10414083;28;19921;-80
2022/09/23 22:38:02;;;;;;;;;;;;;;;10.83;100.00;101138.31;10409556;28;20376;-80
2022/09/23 22:43:02;;;;;;;;;;;;;;;10.76;100.00;101133.59;10418569;28;19928;-79
2022/09/23 22:48:03;;;;;;;;;;;;;;;10.73;100.00;101128.19;10424267;28;20054;-81
2022/09/23 22:53:03;;;;;;;;;;;;;;;10.73;100.00;101128.19;10417609;28;19913;-80
2022/09/23 22:58:04;;;;;;;;;;;;;;;10.66;100.00;101134.84;10421674;28;19920;-80
2022/09/23 23:03:04;;;;;;;;;;;;;;;10.61;100.00;101131.09;10402785;28;19921;-80
2022/09/23 23:08:05;;;;;;;;;;;;;;;10.58;100.00;101131.81;10399315;28;19925;-80
2022/09/23 23:13:05;;;;;;;;;;;;;;;10.56;100.00;101137.81;10366004;28;19921;-80
2022/09/23 23:18:05;;;;;;;;;;;;;;;10.51;100.00;101126.22;10406387;28;20031;-80
2022/09/23 23:23:06;;;;;;;;;;;;;;;10.51;100.00;101121.88;10448209;28;19924;-80
2022/09/23 23:28:06;;;;;;;;;;;;;;;10.51;100.00;101126.22;10425597;28;19921;-80
2022/09/23 23:33:06;;;;;;;;;;;;;;;10.51;100.00;101129.72;10388430;28;19921;-80
2022/09/23 23:38:07;;;;;;;;;;;;;;;10.52;100.00;101118.44;10372764;28;19924;-80
2022/09/23 23:43:07;;;;;;;;;;;;;;;10.60;100.00;101113.59;10405444;28;20351;-80
2022/09/23 23:48:08;;;;;;;;;;;;;;;10.61;100.00;101111.88;10400642;28;19927;-79
2022/09/23 23:53:10;;;;;;;;;;;;;;;10.51;100.00;101116.63;10406550;28;19979;-79
2022/09/23 23:58:11;;;;;;;;;;;;;;;10.47;100.00;101114.66;10423760;28;19924;-79
